Latest Weather Observations for Yanakie

IDV60801

Issued at 11:05 pm EST Tuesday 22 July 2014 (issued every 30 minutes, with the page automatically refreshed every 10 minutes)

About weather observations | Map of weather stations | Latest weather observations for VIC | Other Formats
Station Details ID: 085301 Name: YANAKIE Lat: -38.81 Lon: 146.19 Height: 13.3 m
Data from the previous 72 hours. | See also: Recent months for locations in Victoria
Date/Time
EST
Temp
°C
App
Temp
°C
Dew
Point
Rel
Hum
%
Delta-T
°C
Wind Press
QNH
hPa
Press
MSL
hPa
Rain
since 9 am
mm
Dir
 
Spd
km/h
Gust
km/h
Spd
kts
Gust
kts
22/11:00pm 3.7 2.2 3.0 95 0.3 NNW 0 0 0 0 1025.2 1025.2 0.0
22/10:30pm 3.8 2.3 3.1 95 0.3 NNW 0 0 0 0 1025.2 - 0.0
22/10:00pm 3.3 1.7 2.4 94 0.4 CALM 0 0 0 0 1025.3 1025.3 0.0
22/09:30pm 4.1 2.2 3.1 93 0.4 NNW 2 4 1 2 1025.3 - 0.0
22/09:00pm 4.1 2.2 2.9 92 0.5 N 2 4 1 2 1025.2 1025.2 0.0
22/08:30pm 5.4 3.3 4.1 91 0.6 N 4 6 2 3 1025.0 - 0.0
22/08:00pm 6.0 4.0 4.5 90 0.6 N 4 6 2 3 1025.0 1025.0 0.0
22/07:30pm 6.1 4.0 4.1 87 0.9 ESE 4 6 2 3 1025.0 - 0.0
22/07:00pm 7.7 5.9 5.5 86 1.0 E 4 6 2 3 1025.0 1025.0 0.0
22/06:30pm 8.6 6.4 6.4 86 1.0 SE 7 9 4 5 1024.9 - 0.0
22/06:00pm 8.3 6.2 5.8 84 1.1 SE 6 6 3 3 1024.8 1024.8 0.0
22/05:30pm 8.8 7.0 5.5 80 1.5 SSE 4 6 2 3 1024.7 - 0.0
22/05:00pm 10.2 8.6 6.2 76 1.8 S 4 6 2 3 1024.6 1024.6 0.0
22/04:30pm 11.7 10.3 7.2 74 2.2 S 4 6 2 3 1024.6 - 0.0
22/04:00pm 12.4 10.5 7.5 72 2.4 SSW 7 11 4 6 1024.7 1024.7 0.0
22/03:30pm 12.7 10.7 7.2 69 2.7 S 7 9 4 5 1024.7 - 0.0
22/03:00pm 12.9 10.6 5.8 62 3.3 SSW 7 11 4 6 1024.7 1024.7 0.0
22/02:30pm 13.2 10.9 5.6 60 3.6 SSW 7 11 4 6 1024.6 - 0.0
22/02:00pm 13.4 10.7 5.8 60 3.6 SW 9 13 5 7 1024.7 1024.7 0.0
22/01:30pm 13.5 11.2 7.5 67 2.9 SW 9 19 5 10 1024.9 - 0.0
22/01:00pm 13.3 11.3 7.3 67 2.9 SSW 7 11 4 6 1025.2 1025.2 0.0
22/12:30pm 12.4 10.3 6.7 68 2.7 SW 7 9 4 5 1025.7 - 0.0
22/12:00pm 12.2 10.8 7.1 71 2.4 SW 4 7 2 4 1025.9 1025.9 0.0
22/11:30am 12.9 12.1 9.7 81 1.6 SW 4 7 2 4 1026.2 - 0.0
22/11:00am 12.2 11.7 10.8 91 0.7 N 4 6 2 3 1026.5 1026.5 0.0
22/10:30am 10.9 11.0 10.1 95 0.4 CALM 0 0 0 0 1026.5 - 0.0
22/10:00am 10.3 9.9 9.8 97 0.2 N 2 6 1 3 1026.5 1026.5 0.0
22/09:30am 8.5 8.1 8.2 98 0.1 CALM 0 0 0 0 1026.7 - 0.0
22/09:00am 7.4 6.8 7.3 99 0.0 CALM 0 0 0 0 1026.6 1026.6 0.2
22/08:30am 3.6 2.2 3.3 98 0.1 CALM 0 0 0 0 1026.4 - 0.2
22/08:00am 2.8 1.2 2.7 99 0.0 CALM 0 0 0 0 1026.1 1026.1 0.0
22/07:30am 0.9 -1.0 0.6 98 0.1 CALM 0 0 0 0 1025.9 - 0.0
22/07:00am 1.7 -0.1 1.4 98 0.1 CALM 0 0 0 0 1025.5 1025.5 0.0
22/06:30am 1.3 -0.9 0.9 97 0.1 N 2 4 1 2 1025.4 - 0.0
22/06:00am 1.4 -0.4 1.1 98 0.1 CALM 0 0 0 0 1025.1 1025.1 0.0
22/05:30am 1.0 -0.9 0.6 97 0.1 CALM 0 0 0 0 1025.0 - 0.0
22/05:00am 1.8 0.0 1.4 97 0.2 CALM 0 0 0 0 1025.0 1025.0 0.0
22/04:30am 2.7 1.1 2.3 97 0.2 CALM 0 0 0 0 1024.9 - 0.0
22/04:00am 2.9 1.3 2.5 97 0.2 CALM 0 0 0 0 1025.0 1025.0 0.0
22/03:30am 2.4 0.7 2.0 97 0.2 CALM 0 0 0 0 1024.9 - 0.0
22/03:00am 2.7 1.1 2.3 97 0.2 CALM 0 0 0 0 1025.0 1025.0 0.0
22/02:30am 1.7 -0.1 1.1 96 0.2 CALM 0 0 0 0 1025.0 - 0.0
22/02:00am 1.9 0.1 1.3 96 0.2 CALM 0 0 0 0 1025.0 1025.0 0.0
22/01:30am 2.4 0.7 1.8 96 0.2 CALM 0 0 0 0 1024.9 - 0.0
22/01:00am 1.7 -0.1 1.1 96 0.2 CALM 0 0 0 0 1025.0 1025.0 0.0
22/12:30am 2.8 1.2 2.2 96 0.2 CALM 0 0 0 0 1025.2 - 0.0
22/12:00am 2.3 0.6 1.6 95 0.3 N 0 0 0 0 1025.3 1025.3 0.0
 
Date/Time
EST
Temp
°C
App
Temp
°C
Dew
Point
Rel
Hum
%
Delta-T
°C
Wind Press
QNH
hPa
Press
MSL
hPa
Rain
since 9 am
mm
Dir
 
Spd
km/h
Gust
km/h
Spd
kts
Gust
kts
21/11:30pm 3.1 1.5 2.4 95 0.3 CALM 0 0 0 0 1025.5 - 0.0
21/11:00pm 3.2 1.6 2.5 95 0.3 CALM 0 0 0 0 1025.6 1025.6 0.0
21/10:30pm 3.3 1.7 2.4 94 0.4 CALM 0 0 0 0 1025.6 - 0.0
21/10:00pm 4.1 2.6 3.2 94 0.4 CALM 0 2 0 1 1025.6 1025.6 0.0
21/09:30pm 6.5 4.7 5.6 94 0.4 N 4 6 2 3 1025.6 - 0.0
21/09:00pm 5.6 3.6 4.4 92 0.5 NE 4 6 2 3 1025.4 1025.4 0.0
21/08:30pm 6.0 4.0 4.5 90 0.6 NNE 4 4 2 2 1025.5 - 0.0
21/08:00pm 7.1 5.3 5.4 89 0.7 ENE 4 6 2 3 1025.5 1025.5 0.0
21/07:30pm 8.2 6.3 6.5 89 0.8 E 6 7 3 4 1025.6 - 0.0
21/07:00pm 7.0 4.8 5.5 90 0.7 ESE 6 6 3 3 1025.6 1025.6 0.0
21/06:30pm 6.7 5.1 4.7 87 0.9 ESE 2 4 1 2 1025.5 - 0.0
21/06:00pm 7.7 6.3 5.3 85 1.1 E 2 4 1 2 1025.3 1025.3 0.0
21/05:30pm 9.1 7.9 6.4 83 1.2 E 2 4 1 2 1025.1 - 0.0
21/05:00pm 10.4 9.7 7.1 80 1.6 CALM 0 4 0 2 1024.9 1024.9 0.0
21/04:30pm 11.2 9.8 7.3 77 1.9 SSE 4 6 2 3 1024.8 - 0.0
21/04:00pm 12.0 10.3 7.7 75 2.1 S 6 7 3 4 1024.8 1024.8 0.0
21/03:30pm 12.8 11.5 7.5 70 2.6 SSE 4 7 2 4 1024.6 - 0.0
21/03:00pm 13.1 11.8 4.3 55 4.0 CALM 0 4 0 2 1024.5 1024.5 0.0
21/02:30pm 12.9 11.3 4.6 57 3.8 NE 2 4 1 2 1024.5 - 0.0
21/02:00pm 12.8 11.2 6.2 64 3.1 NNE 4 7 2 4 1024.4 1024.4 0.0
21/01:30pm 12.7 11.7 7.4 70 2.6 N 2 4 1 2 1024.7 - 0.0
21/01:00pm 12.6 11.5 8.3 75 2.1 NE 4 7 2 4 1025.0 1025.0 0.0
21/12:30pm 12.3 10.7 8.0 75 2.1 NE 6 9 3 5 1025.3 - 0.0
21/12:00pm 12.2 11.2 9.0 81 1.6 NNE 4 6 2 3 1025.6 1025.6 0.0
21/11:30am 11.8 10.7 10.0 89 0.9 NE 6 7 3 4 1025.9 - 0.0
21/11:00am 11.3 10.3 10.4 94 0.5 NNE 6 7 3 4 1026.3 1026.3 0.0
21/10:30am 10.0 8.8 9.5 97 0.2 N 6 7 3 4 1026.5 - 0.0
21/10:00am 9.1 8.1 8.8 98 0.1 N 4 6 2 3 1026.5 1026.5 0.0
21/09:30am 8.2 7.0 7.9 98 0.1 N 4 6 2 3 1026.6 - 0.0
21/09:00am 7.5 6.5 7.2 98 0.1 N 2 4 1 2 1026.6 1026.6 0.0
21/08:30am 7.0 5.9 6.7 98 0.1 N 2 6 1 3 1026.5 - 0.0
21/08:00am 6.7 5.2 6.6 99 0.0 NNE 4 6 2 3 1026.5 1026.5 0.0
21/07:30am 6.1 5.1 5.8 98 0.1 CALM 0 0 0 0 1026.3 - 0.0
21/07:00am 5.7 4.7 5.4 98 0.1 CALM 0 0 0 0 1026.1 1026.1 0.0
21/06:30am 5.5 4.4 5.2 98 0.1 CALM 0 0 0 0 1026.0 - 0.0
21/06:00am 5.8 4.8 5.5 98 0.1 CALM 0 0 0 0 1025.8 1025.8 0.0
21/05:30am 6.0 4.3 5.7 98 0.1 S 4 4 2 2 1025.8 - 0.0
21/05:00am 5.4 4.3 5.1 98 0.1 CALM 0 0 0 0 1025.8 1025.8 0.0
21/04:30am 5.7 4.3 5.4 98 0.1 S 2 6 1 3 1025.8 - 0.0
21/04:00am 6.3 4.1 6.0 98 0.1 NNE 7 7 4 4 1025.8 1025.8 0.0
21/03:30am 5.6 4.5 5.3 98 0.1 CALM 0 0 0 0 1025.8 - 0.0
21/03:00am 5.3 4.2 4.9 97 0.2 CALM 0 4 0 2 1025.8 1025.8 0.0
21/02:30am 5.8 3.4 5.4 97 0.2 ENE 7 7 4 4 1026.1 - 0.0
21/02:00am 4.6 2.9 4.2 97 0.2 NE 2 4 1 2 1026.0 1026.0 0.0
21/01:30am 4.2 2.4 3.6 96 0.2 NE 2 2 1 1 1026.1 - 0.0
21/01:00am 4.6 3.3 4.2 97 0.2 CALM 0 0 0 0 1026.2 1026.2 0.0
21/12:30am 3.8 2.3 3.2 96 0.2 CALM 0 0 0 0 1026.4 - 0.0
21/12:00am 4.4 3.0 3.8 96 0.2 CALM 0 0 0 0 1026.6 1026.6 0.0
 
Date/Time
EST
Temp
°C
App
Temp
°C
Dew
Point
Rel
Hum
%
Delta-T
°C
Wind Press
QNH
hPa
Press
MSL
hPa
Rain
since 9 am
mm
Dir
 
Spd
km/h
Gust
km/h
Spd
kts
Gust
kts
20/11:30pm 3.7 2.2 3.1 96 0.2 CALM 0 0 0 0 1026.7 - 0.0
20/11:00pm 3.8 2.3 3.1 95 0.3 CALM 0 0 0 0 1026.8 1026.8 0.0
20/10:30pm 5.0 3.7 4.3 95 0.3 CALM 0 0 0 0 1026.9 - 0.0
20/10:00pm 5.7 4.2 5.0 95 0.3 NNW 2 4 1 2 1026.9 1026.9 0.0
20/09:30pm 6.2 4.4 5.3 94 0.4 NNW 4 4 2 2 1026.8 - 0.0
20/09:00pm 6.1 4.6 5.2 94 0.4 NNW 2 4 1 2 1026.9 1026.9 0.0
20/08:30pm 6.6 5.2 5.6 93 0.4 NNW 2 2 1 1 1027.0 - 0.0
20/08:00pm 6.5 5.4 5.3 92 0.5 CALM 0 0 0 0 1027.1 1027.1 0.0
20/07:30pm 7.4 6.5 5.9 90 0.7 CALM 0 0 0 0 1027.0 - 0.0
20/07:00pm 8.4 7.6 6.7 89 0.8 CALM 0 2 0 1 1026.9 1026.9 0.0
20/06:30pm 9.3 7.5 7.3 87 0.9 NNW 6 6 3 3 1026.8 - 0.0
20/06:00pm 9.8 8.1 7.6 86 1.0 NNW 6 7 3 4 1026.7 1026.7 0.0
20/05:30pm 10.0 9.4 7.4 84 1.2 CALM 0 0 0 0 1026.3 - 0.0
20/05:00pm 10.4 9.4 7.3 81 1.5 SSW 2 2 1 1 1026.3 1026.3 0.0
20/04:30pm 11.2 9.5 7.7 79 1.7 SW 6 7 3 4 1026.3 - 0.0
20/04:00pm 12.0 10.2 8.1 77 1.9 SW 7 11 4 6 1026.3 1026.3 0.0
20/03:30pm 12.2 9.6 7.7 74 2.2 SW 11 15 6 8 1026.2 - 0.0
20/03:00pm 12.8 10.4 8.5 75 2.1 SW 11 15 6 8 1026.2 1026.2 0.0
20/02:30pm 12.5 10.0 8.0 74 2.2 SW 11 15 6 8 1026.2 - 0.0
20/02:00pm 12.7 10.2 8.2 74 2.2 SW 11 15 6 8 1026.3 1026.3 0.0
20/01:30pm 13.0 10.4 7.7 70 2.6 SW 11 15 6 8 1026.4 - 0.0
20/01:00pm 13.0 10.5 8.3 73 2.3 SSW 11 13 6 7 1026.7 1026.7 0.0
20/12:30pm 12.5 9.9 9.5 82 1.5 W 13 19 7 10 1027.0 - 0.0
20/12:00pm 12.7 11.2 10.6 87 1.1 W 9 13 5 7 1027.3 1027.3 0.0
20/11:30am 12.5 11.5 11.1 91 0.7 WNW 7 9 4 5 1027.6 - 0.0
20/11:00am 12.1 10.8 11.3 95 0.4 W 9 13 5 7 1027.8 1027.8 0.0
20/10:30am 11.8 10.1 11.3 97 0.3 WNW 11 15 6 8 1027.9 - 0.0
20/10:00am 10.9 9.0 10.6 98 0.2 WNW 11 15 6 8 1027.7 1027.7 0.0
20/09:30am 10.2 8.5 9.9 98 0.2 WNW 9 13 5 7 1027.7 - 0.0
20/09:00am 10.1 8.4 10.0 99 0.1 NW 9 13 5 7 1027.7 1027.7 4.8
20/08:30am 9.3 7.4 9.2 99 0.0 NW 9 13 5 7 1027.6 - 4.8
20/08:00am 8.8 7.4 8.7 99 0.0 W 6 9 3 5 1027.5 1027.5 4.8
20/07:30am 8.8 6.0 8.5 98 0.1 WNW 13 15 7 8 1027.2 - 4.8
20/07:00am 9.1 7.1 8.8 98 0.1 WNW 9 13 5 7 1027.2 1027.2 4.8
20/06:30am 9.2 6.9 8.9 98 0.1 WNW 11 15 6 8 1026.9 - 4.2
20/06:00am 9.2 7.6 8.9 98 0.1 W 7 13 4 7 1026.8 1026.8 4.2
20/05:30am 9.2 7.3 8.9 98 0.1 W 9 17 5 9 1026.6 - 3.4
20/05:00am 9.1 7.5 8.8 98 0.1 WNW 7 11 4 6 1026.8 1026.8 2.6
20/04:30am 8.7 6.2 8.4 98 0.1 NW 11 15 6 8 1026.6 - 2.2
20/04:00am 8.8 6.4 8.5 98 0.1 NW 11 15 6 8 1026.7 1026.7 2.2
20/03:30am 8.8 6.0 8.5 98 0.1 NW 13 19 7 10 1026.9 - 2.2
20/03:00am 8.9 6.5 8.5 97 0.2 NW 11 15 6 8 1027.1 1027.1 2.2
20/02:30am 8.8 6.7 8.4 97 0.2 NW 9 13 5 7 1027.2 - 2.0
20/02:00am 8.8 6.3 8.4 97 0.2 WNW 11 15 6 8 1027.4 1027.4 0.6
20/01:30am 8.9 6.1 8.5 97 0.2 WNW 13 17 7 9 1027.4 - 0.6
20/01:00am 9.0 5.8 8.6 97 0.2 NW 15 19 8 10 1027.6 1027.6 0.6
20/12:30am 9.0 6.2 8.6 97 0.2 WNW 13 17 7 9 1027.9 - 0.4
20/12:00am 9.0 6.9 8.4 96 0.3 WNW 9 13 5 7 1028.2 1028.2 0.2
 
Date/Time
EST
Temp
°C
App
Temp
°C
Dew
Point
Rel
Hum
%
Delta-T
°C
Wind Press
QNH
hPa
Press
MSL
hPa
Rain
since 9 am
mm
Dir
 
Spd
km/h
Gust
km/h
Spd
kts
Gust
kts
19/11:30pm 9.1 6.3 8.5 96 0.3 WNW 13 19 7 10 1028.2 - 0.2

Other Formats:

Comma delimited format used in spreadsheet applications
http://www.bom.gov.au/fwo/IDV60801/IDV60801.94911.axf

JavaScript Object Notation format (JSON) in row-major order
http://www.bom.gov.au/fwo/IDV60801/IDV60801.94911.json